createdAt,value
2023-01-29T00:01:55.281Z,98676.19
2023-01-29T00:04:23.067Z,98670.72
2023-01-29T00:06:50.169Z,98670.72
2023-01-29T00:09:19.211Z,98668.03
2023-01-29T00:11:46.305Z,98670.94
2023-01-29T00:14:13.602Z,98671.75
2023-01-29T00:16:40.845Z,98677.97
2023-01-29T00:19:07.983Z,98681.56
2023-01-29T00:21:35.096Z,98681.06
2023-01-29T00:24:02.421Z,98675.09
2023-01-29T00:26:30.948Z,98675.69
2023-01-29T00:28:58.072Z,98665.47
2023-01-29T00:31:25.384Z,98672.50
2023-01-29T00:33:52.940Z,98671.09
2023-01-29T00:36:21.580Z,98652.13
2023-01-29T00:38:54.167Z,98678.59
2023-01-29T00:41:21.969Z,98638.38
2023-01-29T00:43:50.518Z,98676.66
2023-01-29T00:46:17.822Z,98674.22
2023-01-29T00:48:44.952Z,98677.13
2023-01-29T00:51:12.029Z,98672.25
2023-01-29T00:53:39.137Z,98672.50
2023-01-29T00:56:07.009Z,98671.94
2023-01-29T00:58:34.119Z,98667.59
2023-01-29T01:01:02.894Z,98671.38
2023-01-29T01:03:30.485Z,98653.75
2023-01-29T01:06:05.198Z,98660.28
2023-01-29T01:08:32.575Z,98652.44
2023-01-29T01:11:01.715Z,98652.63
2023-01-29T01:13:29.590Z,98656.94
2023-01-29T01:15:56.764Z,98658.59
2023-01-29T01:18:25.308Z,98647.81
2023-01-29T01:20:57.638Z,98656.47
2023-01-29T01:23:24.862Z,98657.25
2023-01-29T01:25:51.953Z,98656.94
2023-01-29T01:28:19.170Z,98653.69
2023-01-29T01:30:46.346Z,98661.19
2023-01-29T01:33:13.598Z,98664.34
2023-01-29T01:35:42.052Z,98650.09
2023-01-29T01:38:09.257Z,98660.84
2023-01-29T01:40:36.387Z,98658.41
2023-01-29T01:43:03.515Z,98661.09
2023-01-29T01:45:32.216Z,98653.44
2023-01-29T01:48:04.356Z,98638.69
2023-01-29T01:50:35.507Z,98637.06
2023-01-29T01:53:07.938Z,98638.38
2023-01-29T01:55:40.658Z,98638.63
2023-01-29T01:58:11.743Z,98628.66
2023-01-29T02:00:39.730Z,98629.00
2023-01-29T02:03:21.516Z,98626.63
2023-01-29T02:05:49.794Z,98626.38
2023-01-29T02:08:24.417Z,98623.19
2023-01-29T02:10:52.027Z,98624.84
2023-01-29T02:13:19.239Z,98616.78
2023-01-29T02:15:46.952Z,98625.09
2023-01-29T02:18:16.269Z,98609.59
2023-01-29T02:20:49.151Z,98632.81
2023-01-29T02:23:43.244Z,98633.31
2023-01-29T02:26:31.950Z,98638.69
2023-01-29T02:29:07.058Z,98649.19
2023-01-29T02:31:41.560Z,98652.44
2023-01-29T02:34:17.303Z,98652.97
2023-01-29T02:36:49.533Z,98654.97
2023-01-29T02:39:23.417Z,98654.16
2023-01-29T02:42:02.772Z,98643.56
2023-01-29T02:44:39.353Z,98650.06
2023-01-29T02:47:16.981Z,98655.13
2023-01-29T02:49:48.678Z,98646.47
2023-01-29T02:52:19.677Z,98642.28
2023-01-29T02:54:53.097Z,98640.72
2023-01-29T02:57:23.120Z,98649.13
2023-01-29T02:59:55.684Z,98644.56
2023-01-29T03:02:31.254Z,98647.00
2023-01-29T03:05:01.633Z,98644.56
2023-01-29T03:07:35.408Z,98638.84
2023-01-29T03:10:04.627Z,98639.31
2023-01-29T03:12:37.798Z,98634.50
2023-01-29T03:15:10.328Z,98643.41
2023-01-29T03:17:41.873Z,98639.91
2023-01-29T03:20:16.563Z,98631.44
2023-01-29T03:22:48.955Z,98645.53
2023-01-29T03:25:20.734Z,98640.00
2023-01-29T03:27:51.439Z,98636.72
2023-01-29T03:30:22.312Z,98622.28
2023-01-29T03:32:50.916Z,98636.41
2023-01-29T03:35:21.146Z,98637.94
2023-01-29T03:37:49.325Z,98645.19
2023-01-29T03:40:16.833Z,98633.81
2023-01-29T03:43:05.472Z,98651.13
2023-01-29T03:45:40.242Z,98643.72
2023-01-29T03:48:15.975Z,98647.84
2023-01-29T03:50:54.439Z,98629.06
2023-01-29T03:53:26.054Z,98657.00
2023-01-29T03:55:59.911Z,98661.75
2023-01-29T03:58:35.404Z,98663.91
2023-01-29T04:01:10.547Z,98662.78
2023-01-29T04:03:41.296Z,98674.28
2023-01-29T04:06:13.503Z,98664.50
2023-01-29T04:08:51.056Z,98667.44
2023-01-29T04:11:22.134Z,98661.00
2023-01-29T04:13:49.800Z,98652.06
2023-01-29T04:16:22.919Z,98654.19
2023-01-29T04:18:50.479Z,98655.31
2023-01-29T04:21:18.424Z,98636.47
2023-01-29T04:23:45.660Z,98638.81
2023-01-29T04:26:46.519Z,98655.06
2023-01-29T04:29:25.238Z,98657.91
2023-01-29T04:32:00.474Z,98654.00
2023-01-29T04:34:35.949Z,98661.03
2023-01-29T04:37:12.561Z,98658.34
2023-01-29T04:39:48.707Z,98662.56
2023-01-29T04:42:25.548Z,98669.34
2023-01-29T04:45:01.384Z,98667.09
2023-01-29T04:47:37.128Z,98668.75
2023-01-29T04:50:15.209Z,98659.28
2023-01-29T04:52:51.463Z,98647.88
2023-01-29T04:55:25.454Z,98659.22
2023-01-29T04:58:03.440Z,98656.44
2023-01-29T05:00:35.476Z,98658.31
2023-01-29T05:03:05.959Z,98663.22
2023-01-29T05:05:34.644Z,98663.69
2023-01-29T05:08:04.773Z,98660.19
2023-01-29T05:10:33.419Z,98650.66
2023-01-29T05:13:03.451Z,98654.06
2023-01-29T05:15:37.479Z,98663.53
2023-01-29T05:18:06.674Z,98660.53
2023-01-29T05:20:36.409Z,98639.75
2023-01-29T05:23:03.735Z,98639.56
2023-01-29T05:25:33.143Z,98634.28
2023-01-29T05:28:00.487Z,98639.41
2023-01-29T05:30:27.967Z,98638.69
2023-01-29T05:32:55.231Z,98639.25
2023-01-29T05:35:23.666Z,98635.22
2023-01-29T05:37:50.785Z,98640.38
2023-01-29T05:40:18.258Z,98642.91
2023-01-29T05:42:45.537Z,98640.00
2023-01-29T05:45:12.637Z,98626.53
2023-01-29T05:47:39.737Z,98634.00
2023-01-29T05:50:08.274Z,98628.34
2023-01-29T05:52:36.838Z,98633.44
2023-01-29T05:55:05.710Z,98640.94
2023-01-29T05:57:32.827Z,98649.34
2023-01-29T05:59:59.997Z,98647.88
2023-01-29T06:02:29.616Z,98664.19
2023-01-29T06:04:56.836Z,98659.38
2023-01-29T06:07:26.961Z,98665.81
2023-01-29T06:09:55.467Z,98653.78
2023-01-29T06:12:22.569Z,98640.31
2023-01-29T06:14:49.798Z,98628.06
2023-01-29T06:17:16.905Z,98633.75
2023-01-29T06:19:44.212Z,98631.88
2023-01-29T06:22:11.453Z,98624.25
2023-01-29T06:24:38.585Z,98610.88
2023-01-29T06:27:07.026Z,98619.53
2023-01-29T06:29:34.130Z,98625.53
2023-01-29T06:32:01.336Z,98616.03
2023-01-29T06:34:28.494Z,98617.13
2023-01-29T06:36:55.607Z,98611.91
2023-01-29T06:39:22.721Z,98604.59
2023-01-29T06:41:50.027Z,98604.59
2023-01-29T06:44:18.876Z,98593.28
2023-01-29T06:46:45.979Z,98588.06
2023-01-29T06:49:13.165Z,98599.66
2023-01-29T06:51:40.267Z,98604.41
2023-01-29T06:54:07.460Z,98610.28
2023-01-29T06:56:34.577Z,98612.84
2023-01-29T06:59:02.001Z,98608.19
2023-01-29T07:01:36.110Z,98614.38
2023-01-29T07:04:03.785Z,98621.63
2023-01-29T07:06:31.553Z,98585.56
2023-01-29T07:08:58.671Z,98636.22
2023-01-29T07:11:26.011Z,98643.34
2023-01-29T07:13:53.630Z,98648.13
2023-01-29T07:16:20.799Z,98642.34
2023-01-29T07:18:49.403Z,98650.97
2023-01-29T07:21:16.548Z,98648.69
2023-01-29T07:23:43.659Z,98652.25
2023-01-29T07:26:11.638Z,98641.66
2023-01-29T07:28:39.757Z,98651.13
2023-01-29T07:31:07.843Z,98652.13
2023-01-29T07:33:35.266Z,98646.44
2023-01-29T07:36:07.861Z,98651.19
2023-01-29T07:38:34.962Z,98646.53
2023-01-29T07:41:03.252Z,98656.44
2023-01-29T07:43:30.622Z,98655.44
2023-01-29T07:46:01.752Z,98655.06
2023-01-29T07:48:29.060Z,98659.84
2023-01-29T07:50:56.761Z,98661.88
2023-01-29T07:53:25.745Z,98654.81
2023-01-29T07:55:52.893Z,98661.13
2023-01-29T07:58:20.017Z,98660.56
2023-01-29T08:00:47.236Z,98654.06
2023-01-29T08:03:16.538Z,98669.97
2023-01-29T08:05:44.164Z,98654.50
2023-01-29T08:08:12.004Z,98665.84
2023-01-29T08:10:41.337Z,98671.97
2023-01-29T08:13:09.303Z,98683.72
2023-01-29T08:15:38.791Z,98694.09
2023-01-29T08:18:06.615Z,98684.34
2023-01-29T08:20:33.720Z,98696.13
2023-01-29T08:23:01.605Z,98695.25
2023-01-29T08:25:29.223Z,98706.00
2023-01-29T08:27:58.900Z,98701.53
2023-01-29T08:30:27.125Z,98696.13
2023-01-29T08:32:54.419Z,98705.22
2023-01-29T08:35:21.933Z,98705.13
2023-01-29T08:37:56.427Z,98700.56
2023-01-29T08:40:23.581Z,98709.44
2023-01-29T08:42:50.847Z,98709.78
2023-01-29T08:45:19.340Z,98720.03
2023-01-29T08:47:47.086Z,98708.94
2023-01-29T08:50:14.534Z,98719.41
2023-01-29T08:52:42.467Z,98716.16
2023-01-29T08:55:10.332Z,98707.06
2023-01-29T08:57:37.916Z,98728.16
2023-01-29T09:00:06.615Z,98732.16
2023-01-29T09:02:35.131Z,98726.38
2023-01-29T09:05:02.259Z,98731.03
2023-01-29T09:07:29.839Z,98735.34
2023-01-29T09:09:56.971Z,98744.81
2023-01-29T09:12:24.091Z,98746.44
2023-01-29T09:14:51.248Z,98739.91
2023-01-29T09:17:18.364Z,98731.75
2023-01-29T09:19:46.912Z,98730.94
2023-01-29T09:22:14.101Z,98726.53
2023-01-29T09:24:41.192Z,98730.03
2023-01-29T09:27:08.354Z,98729.56
2023-01-29T09:29:36.083Z,98734.38
2023-01-29T09:32:04.704Z,98730.38
2023-01-29T09:34:31.837Z,98719.50
2023-01-29T09:37:00.763Z,98720.09
2023-01-29T09:39:27.944Z,98722.63
2023-01-29T09:42:03.476Z,98722.06
2023-01-29T09:44:46.966Z,98732.25
2023-01-29T09:47:16.923Z,98730.38
2023-01-29T09:49:47.943Z,98725.72
2023-01-29T09:52:20.368Z,98725.25
2023-01-29T09:54:53.785Z,98722.22
2023-01-29T09:57:25.488Z,98715.75
2023-01-29T09:59:52.601Z,98714.53
2023-01-29T10:02:39.796Z,98709.75
2023-01-29T10:05:26.491Z,98711.38
2023-01-29T10:08:20.244Z,98706.75
2023-01-29T10:10:51.017Z,98699.06
2023-01-29T10:13:29.277Z,98699.69
2023-01-29T10:16:11.713Z,98702.81
2023-01-29T10:18:54.873Z,98687.72
2023-01-29T10:21:38.040Z,98684.13
2023-01-29T10:24:17.152Z,98678.44
2023-01-29T10:26:44.333Z,98682.53
2023-01-29T10:29:17.654Z,98680.13
2023-01-29T10:31:51.296Z,98680.41
2023-01-29T10:34:26.152Z,98689.28
2023-01-29T10:36:55.086Z,98686.03
2023-01-29T10:39:25.487Z,98670.88
2023-01-29T10:42:06.824Z,98683.66
2023-01-29T10:44:49.428Z,98670.41
2023-01-29T10:47:30.755Z,98656.00
2023-01-29T10:50:17.110Z,98670.53
2023-01-29T10:53:05.430Z,98670.69
2023-01-29T10:55:46.510Z,98668.59
2023-01-29T10:58:23.296Z,98667.56
2023-01-29T11:00:51.205Z,98664.38
2023-01-29T11:03:27.999Z,98655.69
2023-01-29T11:06:04.132Z,98651.28
2023-01-29T11:08:37.116Z,98643.34
2023-01-29T11:11:08.397Z,98623.06
2023-01-29T11:13:41.048Z,98624.38
2023-01-29T11:16:09.562Z,98618.69
2023-01-29T11:18:52.648Z,98611.41
2023-01-29T11:21:20.048Z,98615.50
2023-01-29T11:23:47.179Z,98615.22
2023-01-29T11:26:19.520Z,98613.41
2023-01-29T11:28:48.056Z,98614.69
2023-01-29T11:31:17.368Z,98605.41
2023-01-29T11:33:45.802Z,98604.44
2023-01-29T11:36:29.750Z,98614.97
2023-01-29T11:39:12.205Z,98611.69
2023-01-29T11:41:45.491Z,98623.09
2023-01-29T11:44:26.926Z,98588.53
2023-01-29T11:46:54.990Z,98614.09
2023-01-29T11:49:31.103Z,98609.81
2023-01-29T11:52:01.095Z,98595.75
2023-01-29T11:54:32.466Z,98595.38
2023-01-29T11:57:01.709Z,98593.69
2023-01-29T11:59:40.647Z,98587.41
2023-01-29T12:02:29.579Z,98589.88
2023-01-29T12:05:00.032Z,98580.69
2023-01-29T12:07:28.559Z,98577.81
2023-01-29T12:09:57.902Z,98570.28
2023-01-29T12:12:37.375Z,98559.34
2023-01-29T12:15:15.363Z,98551.22
2023-01-29T12:17:45.299Z,98549.03
2023-01-29T12:20:17.571Z,98533.63
2023-01-29T12:22:50.949Z,98537.91
2023-01-29T12:25:23.211Z,98537.66
2023-01-29T12:27:59.219Z,98532.78
2023-01-29T12:30:32.243Z,98534.41
2023-01-29T12:33:05.060Z,98535.94
2023-01-29T12:35:35.840Z,98525.59
2023-01-29T12:38:08.397Z,98525.84
2023-01-29T12:40:43.368Z,98524.91
2023-01-29T12:43:16.700Z,98533.56
2023-01-29T12:45:48.082Z,98525.94
2023-01-29T12:48:23.374Z,98530.16
2023-01-29T12:50:52.798Z,98531.78
2023-01-29T12:53:26.567Z,98528.00
2023-01-29T12:55:57.090Z,98519.44
2023-01-29T12:58:32.193Z,98519.75
2023-01-29T13:01:05.015Z,98530.03
2023-01-29T13:03:46.550Z,98516.50
2023-01-29T13:06:17.911Z,98510.88
2023-01-29T13:08:48.777Z,98498.69
2023-01-29T13:11:21.840Z,98503.53
2023-01-29T13:13:54.629Z,98502.41
2023-01-29T13:16:26.710Z,98503.50
2023-01-29T13:18:57.531Z,98488.84
2023-01-29T13:21:29.324Z,98503.69
2023-01-29T13:24:00.143Z,98502.88
2023-01-29T13:26:27.442Z,98498.19
2023-01-29T13:28:56.090Z,98491.25
2023-01-29T13:31:34.930Z,98482.91
2023-01-29T13:34:09.998Z,98467.22
2023-01-29T13:36:41.639Z,98481.03
2023-01-29T13:39:20.494Z,98485.31
2023-01-29T13:41:47.940Z,98480.94
2023-01-29T13:44:22.726Z,98476.75
2023-01-29T13:46:54.991Z,98492.94
2023-01-29T13:49:30.761Z,98493.50
2023-01-29T13:51:59.449Z,98491.56
2023-01-29T13:54:27.221Z,98499.44
2023-01-29T13:56:59.688Z,98495.97
2023-01-29T13:59:52.837Z,98502.16
2023-01-29T14:02:25.209Z,98498.13
2023-01-29T14:05:12.635Z,98496.22
2023-01-29T14:07:49.498Z,98496.44
2023-01-29T14:10:19.609Z,98486.75
2023-01-29T14:12:49.449Z,98477.84
2023-01-29T14:15:32.405Z,98468.66
2023-01-29T14:18:06.614Z,98474.03
2023-01-29T14:20:45.940Z,98468.09
2023-01-29T14:23:28.107Z,98469.75
2023-01-29T14:25:56.165Z,98470.69
2023-01-29T14:28:26.849Z,98464.50
2023-01-29T14:30:55.624Z,98448.56
2023-01-29T14:33:27.387Z,98465.03
2023-01-29T14:35:56.780Z,98463.94
2023-01-29T14:38:27.750Z,98456.13
2023-01-29T14:41:16.297Z,98455.56
2023-01-29T14:43:43.425Z,98457.03
2023-01-29T14:46:44.896Z,98453.84
2023-01-29T14:49:12.020Z,98456.53
2023-01-29T14:51:43.896Z,98458.88
2023-01-29T14:54:27.845Z,98453.50
2023-01-29T14:56:59.398Z,98441.09
2023-01-29T14:59:32.892Z,98438.94
2023-01-29T15:02:11.916Z,98444.84
2023-01-29T15:04:43.481Z,98443.59
2023-01-29T15:07:23.158Z,98443.81
2023-01-29T15:10:13.300Z,98449.81
2023-01-29T15:12:48.340Z,98440.72
2023-01-29T15:15:18.886Z,98439.22
2023-01-29T15:17:56.596Z,98419.91
2023-01-29T15:20:30.464Z,98451.28
2023-01-29T15:22:57.690Z,98445.59
2023-01-29T15:25:25.706Z,98435.31
2023-01-29T15:27:54.731Z,98445.84
2023-01-29T15:30:29.092Z,98442.84
2023-01-29T15:32:58.203Z,98426.81
2023-01-29T15:35:28.890Z,98428.78
2023-01-29T15:38:01.443Z,98422.31
2023-01-29T15:40:29.015Z,98442.81
2023-01-29T15:42:56.174Z,98439.81
2023-01-29T15:45:27.107Z,98438.72
2023-01-29T15:47:58.161Z,98435.19
2023-01-29T15:50:25.523Z,98435.25
2023-01-29T15:52:54.572Z,98438.28
2023-01-29T15:55:23.832Z,98435.84
2023-01-29T15:57:51.275Z,98435.34
2023-01-29T16:00:22.839Z,98432.47
2023-01-29T16:02:50.143Z,98434.75
2023-01-29T16:05:21.806Z,98435.59
2023-01-29T16:07:51.105Z,98442.28
2023-01-29T16:10:20.298Z,98432.56
2023-01-29T16:12:49.412Z,98434.13
2023-01-29T16:15:23.641Z,98437.66
2023-01-29T16:17:50.815Z,98439.78
2023-01-29T16:20:32.475Z,98441.94
2023-01-29T16:23:00.328Z,98429.53
2023-01-29T16:25:29.933Z,98431.63
2023-01-29T16:27:57.482Z,98428.91
2023-01-29T16:30:26.558Z,98437.00
2023-01-29T16:33:01.637Z,98433.16
2023-01-29T16:35:30.854Z,98425.63
2023-01-29T16:38:02.858Z,98431.50
2023-01-29T16:40:32.331Z,98431.75
2023-01-29T16:43:42.520Z,98425.50
2023-01-29T16:46:18.931Z,98429.25
2023-01-29T16:48:47.124Z,98420.88
2023-01-29T16:51:23.608Z,98424.56
2023-01-29T16:53:59.633Z,98434.28
2023-01-29T16:56:30.024Z,98435.81
2023-01-29T16:58:57.945Z,98420.91
2023-01-29T17:01:28.820Z,98438.63
2023-01-29T17:04:10.240Z,98432.72
2023-01-29T17:06:42.708Z,98438.13
2023-01-29T17:09:20.993Z,98446.44
2023-01-29T17:11:53.569Z,98449.44
2023-01-29T17:14:20.657Z,98438.91
2023-01-29T17:16:50.637Z,98431.09
2023-01-29T17:19:19.280Z,98426.72
2023-01-29T17:21:47.848Z,98434.06
2023-01-29T17:24:14.985Z,98434.00
2023-01-29T17:26:42.556Z,98437.19
2023-01-29T17:29:14.341Z,98441.53
2023-01-29T17:31:41.734Z,98440.97
2023-01-29T17:34:11.387Z,98442.84
2023-01-29T17:36:38.638Z,98449.53
2023-01-29T17:39:15.194Z,98451.44
2023-01-29T17:41:46.536Z,98460.81
2023-01-29T17:44:14.420Z,98462.66
2023-01-29T17:46:41.548Z,98459.41
2023-01-29T17:49:19.975Z,98464.47
2023-01-29T17:51:47.096Z,98461.28
2023-01-29T17:54:15.902Z,98445.56
2023-01-29T17:56:43.025Z,98449.59
2023-01-29T17:59:14.412Z,98450.16
2023-01-29T18:01:41.663Z,98437.50
2023-01-29T18:04:08.860Z,98445.63
2023-01-29T18:06:36.340Z,98439.44
2023-01-29T18:09:04.184Z,98446.13
2023-01-29T18:11:32.883Z,98449.94
2023-01-29T18:14:02.682Z,98450.47
2023-01-29T18:16:41.244Z,98445.56
2023-01-29T18:19:14.054Z,98442.31
2023-01-29T18:21:41.165Z,98449.34
2023-01-29T18:24:08.536Z,98434.25
2023-01-29T18:26:37.114Z,98439.88
2023-01-29T18:29:04.839Z,98440.97
2023-01-29T18:31:32.082Z,98426.94
2023-01-29T18:33:59.409Z,98424.75
2023-01-29T18:36:26.550Z,98424.75
2023-01-29T18:38:53.709Z,98419.53
2023-01-29T18:41:20.876Z,98424.69
2023-01-29T18:43:49.315Z,98429.22
2023-01-29T18:46:16.587Z,98434.03
2023-01-29T18:48:43.776Z,98420.56
2023-01-29T18:51:10.897Z,98431.03
2023-01-29T18:53:38.209Z,98430.31
2023-01-29T18:56:06.906Z,98432.22
2023-01-29T18:58:36.108Z,98433.19
2023-01-29T19:01:07.144Z,98424.97
2023-01-29T19:03:34.412Z,98433.94
2023-01-29T19:06:02.089Z,98426.94
2023-01-29T19:08:29.300Z,98409.44
2023-01-29T19:10:56.432Z,98411.84
2023-01-29T19:13:23.542Z,98418.63
2023-01-29T19:15:50.814Z,98419.19
2023-01-29T19:18:19.488Z,98420.50
2023-01-29T19:20:46.589Z,98419.06
2023-01-29T19:23:13.727Z,98422.84
2023-01-29T19:25:40.829Z,98426.03
2023-01-29T19:28:08.052Z,98427.03
2023-01-29T19:30:35.351Z,98420.31
2023-01-29T19:33:02.513Z,98426.19
2023-01-29T19:35:30.980Z,98421.88
2023-01-29T19:37:59.322Z,98422.94
2023-01-29T19:40:26.665Z,98408.44
2023-01-29T19:42:54.029Z,98414.91
2023-01-29T19:45:23.697Z,98418.72
2023-01-29T19:48:08.396Z,98423.03
2023-01-29T19:50:36.897Z,98417.38
2023-01-29T19:53:03.985Z,98427.56
2023-01-29T19:55:31.108Z,98416.50
2023-01-29T19:57:58.321Z,98428.31
2023-01-29T20:00:25.915Z,98420.78
2023-01-29T20:02:53.027Z,98425.31
2023-01-29T20:05:20.410Z,98426.16
2023-01-29T20:07:49.365Z,98426.38
2023-01-29T20:10:17.113Z,98422.78
2023-01-29T20:12:45.538Z,98422.56
2023-01-29T20:15:13.349Z,98434.13
2023-01-29T20:17:40.652Z,98431.88
2023-01-29T20:20:11.017Z,98430.47
2023-01-29T20:22:38.170Z,98431.00
2023-01-29T20:25:07.398Z,98428.00
2023-01-29T20:27:34.531Z,98427.44
2023-01-29T20:30:01.737Z,98420.19
2023-01-29T20:32:28.812Z,98419.38
2023-01-29T20:34:55.937Z,98421.84
2023-01-29T20:37:23.039Z,98410.28
2023-01-29T20:39:50.159Z,98414.88
2023-01-29T20:42:18.802Z,98411.66
2023-01-29T20:44:45.896Z,98404.66
2023-01-29T20:47:13.046Z,98399.22
2023-01-29T20:49:40.186Z,98401.91
2023-01-29T20:52:07.360Z,98396.78
2023-01-29T20:54:34.473Z,98397.06
2023-01-29T20:57:01.669Z,98390.03
2023-01-29T20:59:30.126Z,98379.53
2023-01-29T21:01:57.285Z,98371.69
2023-01-29T21:04:24.658Z,98373.03
2023-01-29T21:06:51.809Z,98373.84
2023-01-29T21:09:18.940Z,98370.31
2023-01-29T21:11:46.062Z,98373.00
2023-01-29T21:14:13.197Z,98362.47
2023-01-29T21:16:41.851Z,98357.34
2023-01-29T21:19:09.305Z,98356.28
2023-01-29T21:21:36.599Z,98346.84
2023-01-29T21:24:04.121Z,98337.75
2023-01-29T21:26:31.482Z,98339.97
2023-01-29T21:28:58.562Z,98329.75
2023-01-29T21:31:25.747Z,98330.31
2023-01-29T21:33:54.335Z,98334.06
2023-01-29T21:36:21.446Z,98319.47
2023-01-29T21:38:48.887Z,98327.84
2023-01-29T21:41:16.025Z,98321.63
2023-01-29T21:43:44.709Z,98316.72
2023-01-29T21:46:12.176Z,98320.19
2023-01-29T21:48:40.072Z,98327.28
2023-01-29T21:51:08.623Z,98326.97
2023-01-29T21:53:36.411Z,98338.78
2023-01-29T21:56:05.333Z,98344.72
2023-01-29T21:58:32.498Z,98351.66
2023-01-29T22:01:36.498Z,98356.47
2023-01-29T22:03:47.570Z,98352.75
2023-01-29T22:06:16.632Z,98346.22
2023-01-29T22:08:43.941Z,98352.66
2023-01-29T22:11:11.246Z,98348.63
2023-01-29T22:13:38.602Z,98354.34
2023-01-29T22:16:06.314Z,98353.84
2023-01-29T22:18:33.559Z,98351.16
2023-01-29T22:21:00.996Z,98353.84
2023-01-29T22:23:29.902Z,98353.03
2023-01-29T22:26:02.644Z,98346.03
2023-01-29T22:28:29.847Z,98338.16
2023-01-29T22:31:00.714Z,98344.34
2023-01-29T22:33:27.847Z,98334.41
2023-01-29T22:35:55.404Z,98337.59
2023-01-29T22:38:22.806Z,98335.41
2023-01-29T22:40:51.679Z,98331.97
2023-01-29T22:43:19.231Z,98324.66
2023-01-29T22:45:46.456Z,98326.03
2023-01-29T22:48:13.916Z,98300.31
2023-01-29T22:50:41.365Z,98311.41
2023-01-29T22:53:08.940Z,98295.66
2023-01-29T22:55:36.041Z,98311.94
2023-01-29T22:58:04.515Z,98298.72
2023-01-29T23:00:31.898Z,98302.53
2023-01-29T23:02:59.007Z,98299.03
2023-01-29T23:05:26.110Z,98285.09
2023-01-29T23:07:53.187Z,98279.22
2023-01-29T23:10:20.351Z,98273.59
2023-01-29T23:12:47.460Z,98271.16
2023-01-29T23:15:16.027Z,98274.16
2023-01-29T23:17:43.210Z,98260.97
2023-01-29T23:20:11.731Z,98257.94
2023-01-29T23:22:38.834Z,98258.50
2023-01-29T23:25:06.743Z,98258.75
2023-01-29T23:27:33.850Z,98261.16
2023-01-29T23:30:00.958Z,98259.53
2023-01-29T23:32:29.626Z,98251.22
2023-01-29T23:34:56.728Z,98249.59
2023-01-29T23:37:23.892Z,98246.59
2023-01-29T23:39:51.350Z,98240.09
2023-01-29T23:42:18.702Z,98239.81
2023-01-29T23:44:45.816Z,98224.50
2023-01-29T23:47:12.933Z,98218.31
2023-01-29T23:49:41.412Z,98209.66
2023-01-29T23:52:08.497Z,98196.44
2023-01-29T23:54:35.626Z,98194.38
2023-01-29T23:57:02.732Z,98192.25
2023-01-29T23:59:29.906Z,98187.97
